Terminal Aerodrome Forecast
Issued by NWS

Home | Current Version | Previous Version | Graphics & Text | Print | Product List | Glossary On
Versions: 1 2 3 4 5 6 7 8 9 10 11 12 13 14 15 16 17 18 19 20 21 22 23 24 25 26 27 28 29 30 31 32 33 34 35 36
000
FTUS43 KLOT 152100 AAC
TAFMDW
TAF AMD
KMDW 152146Z 1522/1618 29006KT P6SM VCSH BKN025 OVC035
     FM152330 01012KT 6SM -RADZ SCT012 BKN018 OVC030
     FM160100 36008KT P6SM SCT015 BKN025 BKN040
     FM160230 35006KT P6SM SKC=

USA.gov is the U.S. government's official web portal to all federal, state and local government web resources and services.